Flight Track Log - Related Links

Times and Time Zones

All times are in EDT time to prevent confusion due to time zone crossing. See the RPA3228 flight status page for this flight to view local times or setup timezone preferences in your user account.

Time Position Orientation Groundspeed Altitude Reporting Facility
EDT Latitude Longitude Course Direction KTS MPH feet Rate Location/Type
Wed 07:42:31 AM 36.1333 -86.6833 64° Northeast 143 165 1,400  Level Nashville TRACON
Wed 07:43:49 AM 36.1500 -86.7667 284° West 217 250 4,200 2,625 Climbing Nashville TRACON
Wed 07:44:55 AM 36.1833 -86.8500 296° West 284 327 7,700 2,887 Climbing Nashville TRACON
Wed 07:45:00 AM 36.1871 -86.1572 80° East  Level FlightAware Approximate
Wed 07:46:00 AM 36.2136 -86.0328 64° Northeast  Level FlightAware Approximate
Wed 07:46:02 AM 36.2428 -86.7956 36° Northeast 268 308 10,600  Level Memphis Center
Wed 07:47:00 AM 36.2601 -85.9165 64° Northeast  Level FlightAware Approximate
Wed 07:47:02 AM 36.2458 -86.6797 88° East 254 292 12,900  Level Memphis Center
Wed 07:48:02 AM 36.2567 -86.5581 84° East 309 356 15,700 2,650 Climbing Memphis Center
Wed 07:49:02 AM 36.2656 -86.4367 85° East 344 396 18,200 2,400 Climbing Memphis Center
Wed 07:50:02 AM 36.2758 -86.3100 84° East 356 410 20,500 1,400 Climbing Memphis Center
Wed 07:51:02 AM 36.2864 -86.1808 84° East 372 428 21,000 250 Climbing Memphis Center
Wed 07:52:02 AM 36.2964 -86.0489 85° East 372 428 21,000  Level Memphis Center
Wed 07:53:02 AM 36.3064 -85.9172 85° East 377 434 21,000  Level Memphis Center
Wed 07:54:02 AM 36.3247 -85.7900 80° East 382 440 21,000 706 Level Memphis Center
Wed 07:55:01 AM 36.3711 -85.6947 59° Northeast 383 441 22,400 1,537 Climbing Indianapolis Center
Wed 07:56:03 AM 36.4275 -85.5783 59° Northeast 389 448 24,100 1,951 Climbing Indianapolis Center
Wed 07:57:04 AM 36.4950 -85.4331 60° Northeast 402 463 26,400 1,854 Climbing Indianapolis Center
Wed 07:58:06 AM 36.5525 -85.3108 60° Northeast 408 470 27,900 1,366 Climbing Indianapolis Center
Wed 07:59:07 AM 36.6103 -85.1847 60° Northeast 419 482 29,200 1,171 Climbing Indianapolis Center
Wed 08:00:09 AM 36.6553 -85.0461 68° East 431 496 30,300 1,016 Climbing Indianapolis Center
Wed 08:01:11 AM 36.6997 -84.9017 69° East 444 511 31,300 1,122 Climbing Indianapolis Center
Wed 08:02:12 AM 36.7433 -84.7572 69° East 445 512 32,600 1,268 Climbing Indianapolis Center
Wed 08:03:14 AM 36.7864 -84.6139 69° East 441 507 33,900 1,210 Climbing Indianapolis Center
Wed 08:04:16 AM 36.8300 -84.4706 69° East 438 504 35,100 1,268 Climbing Indianapolis Center
Wed 08:05:17 AM 36.8725 -84.3297 69° East 434 499 36,500 1,171 Climbing Indianapolis Center
Wed 08:06:19 AM 36.9208 -84.1672 70° East 429 494 37,500 774 Climbing Indianapolis Center
Wed 08:07:21 AM 36.9617 -84.0289 70° East 425 489 38,100 537 Climbing Indianapolis Center
Wed 08:08:22 AM 37.0042 -83.8872 69° East 430 495 38,600 439 Climbing Indianapolis Center
Wed 08:09:24 AM 37.0469 -83.7464 69° East 432 497 39,000 194 Climbing Indianapolis Center
Wed 08:10:26 AM 37.0892 -83.6036 70° East 434 499 39,000  Level Indianapolis Center
Wed 08:11:27 AM 37.1303 -83.4614 70° East 433 498 39,000  Level Indianapolis Center
Wed 08:12:29 AM 37.1708 -83.3203 70° East 429 494 39,000  Level Indianapolis Center
Wed 08:13:31 AM 37.2203 -83.1564 69° East 425 489 39,000  Level Indianapolis Center
Wed 08:14:33 AM 37.2600 -83.0144 71° East 427 491 39,000  Level Indianapolis Center
Wed 08:15:34 AM 37.2711 -82.8681 85° East 427 491 39,000  Level Indianapolis Center
Wed 08:16:36 AM 37.2506 -82.7200 100° East 427 491 39,000  Level Indianapolis Center
Wed 08:17:38 AM 37.2289 -82.5725 100° East 426 490 39,000  Level Indianapolis Center
Wed 08:18:40 AM 37.2083 -82.4247 100° East 427 491 39,000  Level Indianapolis Center
Wed 08:19:42 AM 37.1875 -82.2786 100° East 425 489 39,000  Level Indianapolis Center
Wed 08:20:43 AM 37.2172 -82.1381 75° East 428 493 39,000  Level Indianapolis Center
Wed 08:21:45 AM 37.2983 -82.0006 53° Northeast 421 484 39,000  Level Indianapolis Center
Wed 08:22:47 AM 37.3656 -81.8792 55° Northeast 422 486 39,000  Level Indianapolis Center
Wed 08:23:49 AM 37.4331 -81.7581 55° Northeast 422 486 39,000  Level Indianapolis Center
Wed 08:24:51 AM 37.5003 -81.6364 55° Northeast 423 487 39,000  Level Indianapolis Center
Wed 08:25:53 AM 37.5667 -81.5161 55° Northeast 418 481 39,000  Level Indianapolis Center
Wed 08:26:55 AM 37.6378 -81.3867 55° Northeast 414 476 39,000  Level Indianapolis Center
Wed 08:27:57 AM 37.7017 -81.2697 55° Northeast 416 479 39,000  Level Indianapolis Center
Wed 08:28:58 AM 37.7647 -81.1536 55° Northeast 413 475 39,000  Level Indianapolis Center
Wed 08:30:00 AM 37.8247 -81.0017 63° Northeast 414 476 39,000  Level Indianapolis Center
Wed 08:31:02 AM 37.8725 -80.8611 67° East 419 482 39,000  Level Indianapolis Center
Wed 08:32:04 AM 37.9197 -80.7281 66° East 416 479 39,000  Level Indianapolis Center
Wed 08:33:06 AM 37.9672 -80.5939 66° East 418 481 39,000  Level Indianapolis Center
Wed 08:33:44 AM 37.9994 -80.5092 64° Northeast 415 478 39,000  Level Washington Center
Wed 08:34:45 AM 38.0486 -80.3753 65° Northeast 410 472 39,000  Level Washington Center
Wed 08:35:43 AM 38.0956 -80.2411 66° East 410 472 39,000  Level Washington Center
Wed 08:36:43 AM 38.1397 -80.1222 65° Northeast 410 472 39,000  Level Washington Center
Wed 08:37:45 AM 38.1889 -79.9853 65° Northeast 410 472 39,000 -541 Level Washington Center
Wed 08:38:45 AM 38.2353 -79.8506 66° East 410 472 37,900 -1,475 Descending Washington Center
Wed 08:39:43 AM 38.2817 -79.7156 66° East 410 472 36,100 -2,067 Descending Washington Center
Wed 08:40:44 AM 38.3369 -79.5625 65° Northeast 410 472 33,800 -2,016 Descending Washington Center
Wed 08:41:45 AM 38.3833 -79.4219 67° East 416 479 32,000 -1,835 Descending Washington Center
Wed 08:42:45 AM 38.4294 -79.2758 68° East 426 490 30,100 -1,983 Descending Washington Center
Wed 08:43:43 AM 38.4592 -79.1208 76° East 431 496 28,100 -1,815 Descending Washington Center
Wed 08:44:44 AM 38.4797 -78.9839 79° East 443 510 26,500 -1,328 Descending Washington Center
Wed 08:45:45 AM 38.5028 -78.8336 79° East 443 510 25,400 -1,513 Descending Washington Center
Wed 08:46:43 AM 38.5275 -78.6861 78° East 432 497 23,500 -1,800 Descending Washington Center
Wed 08:47:45 AM 38.5503 -78.5278 80° East 424 488 21,800 -1,525 Descending Washington Center
Wed 08:48:45 AM 38.5722 -78.3906 78° East 406 467 20,400 -1,576 Descending Washington Center
Wed 08:49:43 AM 38.5983 -78.2533 76° East 401 461 18,700 -1,664 Descending Washington Center
Wed 08:50:44 AM 38.6342 -78.1350 69° East 376 433 17,100 -1,525 Descending Washington Center
Wed 08:51:45 AM 38.6700 -78.0194 68° East 353 406 15,600 -1,513 Descending Washington Center
Wed 08:52:43 AM 38.7056 -77.9089 68° East 340 391 14,100 -1,475 Descending Washington Center
Wed 08:53:43 AM 38.7492 -77.8036 62° Northeast 335 386 12,700 -1,388 Descending Washington Center
Wed 08:54:44 AM 38.8069 -77.7203 48° Northeast 323 372 11,300 -1,328 Descending Washington Center
Wed 08:55:45 AM 38.8647 -77.6339 49° Northeast 315 362 10,000 -1,210 Descending Washington Center
Wed 08:56:43 AM 38.9097 -77.5711 47° Northeast 289 333 8,900 -1,008 Descending Washington Center
Wed 08:57:44 AM 38.9422 -77.4811 65° Northeast 242 278 8,000 -870 Descending Washington Center
Wed 08:58:54 AM 38.8833 -77.4000 133° Southeast 247 284 7,000 -462 Descending Potomac TRACON
Wed 08:59:54 AM 38.8500 -77.3333 123° Southeast 222 255 7,000  Level Potomac TRACON
Wed 09:00:48 AM 38.8667 -77.2667 72° East 210 242 7,000 -526 Level Potomac TRACON
Wed 09:01:48 AM 38.8667 -77.1833 90° East 210 242 6,000 -500 Descending Potomac TRACON
Wed 09:02:48 AM 38.9167 -77.2000 345° North 181 208 6,000  Level Potomac TRACON
Wed 09:03:42 AM 38.9333 -77.2500 293° West 179 206 6,000  Level Potomac TRACON
Wed 09:04:42 AM 38.9667 -77.3000 311° West 177 204 6,000 -211 Level Potomac TRACON
Wed 09:05:36 AM 39.0000 -77.3333 322° Northwest 173 199 5,600 -526 Descending Potomac TRACON
Wed 09:06:36 AM 39.0333 -77.3500 339° North 200 230 5,000 -550 Descending Potomac TRACON
Wed 09:07:36 AM 39.0500 -77.2833 72° East 202 232 4,500 -950 Descending Potomac TRACON
Wed 09:08:36 AM 39.0333 -77.2333 113° Southeast 197 227 3,100 -789 Descending Potomac TRACON
Wed 09:09:30 AM 39.0000 -77.1833 131° Southeast 189 217 3,000 -111 Descending Potomac TRACON

Login

Don't have an account? Register now (free) for customized features, flight alerts, and more!